createdAt,value
2019-05-06T00:02:21.448Z,101204.33
2019-05-06T00:04:48.331Z,101205.89
2019-05-06T00:07:14.976Z,101207.35
2019-05-06T00:09:44.077Z,101214.77
2019-05-06T00:12:12.044Z,101208.48
2019-05-06T00:14:38.937Z,101209.86
2019-05-06T00:17:05.933Z,101207.05
2019-05-06T00:19:34.126Z,101205.05
2019-05-06T00:22:01.017Z,101206.85
2019-05-06T00:24:29.724Z,101206.36
2019-05-06T00:27:14.117Z,101202.17
2019-05-06T00:29:43.903Z,101209.52
2019-05-06T00:32:11.866Z,101214.66
2019-05-06T00:34:38.760Z,101210.47
2019-05-06T00:37:07.411Z,101203.53
2019-05-06T00:39:36.016Z,101199.83
2019-05-06T00:42:04.929Z,101197.88
2019-05-06T00:44:32.139Z,101206.65
2019-05-06T00:46:58.882Z,101199.91
2019-05-06T00:49:25.525Z,101198.20
2019-05-06T00:51:52.291Z,101203.12
2019-05-06T00:54:24.763Z,101205.38
2019-05-06T00:56:54.138Z,101210.28
2019-05-06T00:59:21.104Z,101202.52
2019-05-06T01:01:48.089Z,101195.80
2019-05-06T01:04:15.090Z,101195.67
2019-05-06T01:06:43.898Z,101193.22
2019-05-06T01:09:14.088Z,101200.81
2019-05-06T01:11:41.545Z,101202.50
2019-05-06T01:14:10.211Z,101201.41
2019-05-06T01:16:37.192Z,101197.19
2019-05-06T01:19:04.667Z,101196.13
2019-05-06T01:21:34.100Z,101203.80
2019-05-06T01:24:00.736Z,101202.65
2019-05-06T01:26:27.847Z,101200.02
2019-05-06T01:28:56.331Z,101203.48
2019-05-06T01:31:24.692Z,101194.89
2019-05-06T01:33:53.533Z,101199.09
2019-05-06T01:36:21.226Z,101199.05
2019-05-06T01:38:54.024Z,101202.59
2019-05-06T01:41:24.383Z,101208.61
2019-05-06T01:43:51.609Z,101208.84
2019-05-06T01:46:18.777Z,101201.06
2019-05-06T01:48:48.080Z,101206.27
2019-05-06T01:51:16.899Z,101208.61
2019-05-06T01:53:44.849Z,101201.62
2019-05-06T01:56:11.860Z,101199.56
2019-05-06T01:58:38.731Z,101200.76
2019-05-06T02:01:05.883Z,101203.73
2019-05-06T02:03:34.701Z,101201.17
2019-05-06T02:06:01.691Z,101203.71
2019-05-06T02:08:28.872Z,101209.30
2019-05-06T02:10:55.725Z,101201.58
2019-05-06T02:13:23.798Z,101202.77
2019-05-06T02:15:51.010Z,101200.34
2019-05-06T02:18:19.715Z,101200.86
2019-05-06T02:20:47.734Z,101200.76
2019-05-06T02:23:16.460Z,101201.41
2019-05-06T02:25:45.083Z,101195.02
2019-05-06T02:28:11.886Z,101191.80
2019-05-06T02:30:46.919Z,101197.42
2019-05-06T02:33:19.418Z,101194.27
2019-05-06T02:35:57.211Z,101198.58
2019-05-06T02:38:39.131Z,101192.95
2019-05-06T02:40:57.439Z,101190.36
2019-05-06T02:43:25.557Z,101197.16
2019-05-06T02:45:53.237Z,101190.53
2019-05-06T02:48:38.675Z,101193.45
2019-05-06T02:51:07.711Z,101192.91
2019-05-06T02:53:34.717Z,101188.05
2019-05-06T02:56:04.127Z,101194.41
2019-05-06T02:58:33.020Z,101195.97
2019-05-06T03:01:03.199Z,101184.74
2019-05-06T03:03:28.089Z,101185.27
2019-05-06T03:05:54.757Z,101185.34
2019-05-06T03:08:23.698Z,101192.64
2019-05-06T03:10:53.068Z,101191.80
2019-05-06T03:13:19.198Z,101193.06
2019-05-06T03:15:46.139Z,101198.76
2019-05-06T03:18:14.837Z,101197.08
2019-05-06T03:20:45.139Z,101196.41
2019-05-06T03:23:16.478Z,101198.77
2019-05-06T03:25:45.153Z,101199.05
2019-05-06T03:28:13.286Z,101196.08
2019-05-06T03:30:45.205Z,101196.73
2019-05-06T03:35:56.464Z,101205.59
2019-05-06T03:38:06.347Z,101202.39
2019-05-06T03:40:36.655Z,101201.65
2019-05-06T03:43:03.000Z,101199.60
2019-05-06T03:45:48.189Z,101203.84
2019-05-06T03:48:16.968Z,101208.57
2019-05-06T03:50:44.129Z,101207.42
2019-05-06T03:53:13.795Z,101212.51
2019-05-06T03:55:46.527Z,101212.84
2019-05-06T03:58:13.375Z,101207.67
2019-05-06T04:00:43.797Z,101213.70
2019-05-06T04:03:13.763Z,101212.25
2019-05-06T04:05:39.531Z,101213.81
2019-05-06T04:08:07.081Z,101216.37
2019-05-06T04:10:36.974Z,101212.21
2019-05-06T04:13:04.141Z,101213.64
2019-05-06T04:15:34.218Z,101212.13
2019-05-06T04:18:08.862Z,101221.44
2019-05-06T04:20:43.706Z,101218.45
2019-05-06T04:23:15.489Z,101212.42
2019-05-06T04:25:47.307Z,101215.77
2019-05-06T04:28:16.147Z,101219.03
2019-05-06T04:30:43.039Z,101226.68
2019-05-06T04:33:14.120Z,101223.69
2019-05-06T04:35:39.005Z,101225.07
2019-05-06T04:38:05.752Z,101230.34
2019-05-06T04:40:33.715Z,101227.00
2019-05-06T04:43:03.370Z,101225.05
2019-05-06T04:45:29.212Z,101222.66
2019-05-06T04:47:56.136Z,101228.20
2019-05-06T04:50:24.236Z,101228.62
2019-05-06T04:53:05.398Z,101217.02
2019-05-06T04:55:34.151Z,101216.82
2019-05-06T04:58:04.021Z,101218.66
2019-05-06T05:00:33.339Z,101224.48
2019-05-06T05:03:02.859Z,101223.05
2019-05-06T05:05:29.201Z,101212.25
2019-05-06T05:07:55.984Z,101204.91
2019-05-06T05:10:27.808Z,101217.22
2019-05-06T05:12:57.930Z,101218.27
2019-05-06T05:15:43.716Z,101210.23
2019-05-06T05:18:18.630Z,101209.78
2019-05-06T05:20:46.732Z,101210.97
2019-05-06T05:23:13.956Z,101208.20
2019-05-06T05:25:42.545Z,101204.55
2019-05-06T05:28:10.408Z,101209.03
2019-05-06T05:30:37.775Z,101213.36
2019-05-06T05:33:04.731Z,101209.77
2019-05-06T05:35:32.182Z,101212.06
2019-05-06T05:37:59.437Z,101210.69
2019-05-06T05:40:27.476Z,101210.28
2019-05-06T05:42:56.328Z,101215.50
2019-05-06T05:45:23.429Z,101208.08
2019-05-06T05:47:52.265Z,101207.93
2019-05-06T05:50:22.831Z,101208.36
2019-05-06T05:52:51.977Z,101207.52
2019-05-06T05:55:21.469Z,101210.02
2019-05-06T05:57:49.216Z,101222.42
2019-05-06T06:00:18.099Z,101214.56
2019-05-06T06:02:45.713Z,101213.30
2019-05-06T06:05:13.485Z,101219.94
2019-05-06T06:07:42.214Z,101217.31
2019-05-06T06:10:17.954Z,101223.70
2019-05-06T06:12:46.679Z,101226.16
2019-05-06T06:15:32.805Z,101218.30
2019-05-06T06:18:18.665Z,101227.13
2019-05-06T06:20:48.302Z,101222.77
2019-05-06T06:23:17.574Z,101224.05
2019-05-06T06:25:46.756Z,101219.86
2019-05-06T06:28:14.664Z,101221.44
2019-05-06T06:30:58.775Z,101219.94
2019-05-06T06:33:26.797Z,101220.75
2019-05-06T06:35:56.541Z,101212.47
2019-05-06T06:38:25.447Z,101215.80
2019-05-06T06:40:55.501Z,101213.59
2019-05-06T06:43:22.996Z,101205.55
2019-05-06T06:45:49.984Z,101195.66
2019-05-06T06:48:17.047Z,101200.00
2019-05-06T06:50:45.190Z,101196.10
2019-05-06T06:53:12.381Z,101196.87
2019-05-06T06:55:42.576Z,101191.20
2019-05-06T06:58:23.837Z,101190.88
2019-05-06T07:00:53.386Z,101186.97
2019-05-06T07:03:25.063Z,101187.84
2019-05-06T07:05:59.641Z,101177.38
2019-05-06T07:08:34.885Z,101174.27
2019-05-06T07:10:55.488Z,101176.68
2019-05-06T07:13:23.203Z,101166.67
2019-05-06T07:15:51.979Z,101160.69
2019-05-06T07:18:19.086Z,101160.08
2019-05-06T07:21:03.302Z,101159.78
2019-05-06T07:23:33.142Z,101153.37
2019-05-06T07:26:02.852Z,101151.83
2019-05-06T07:28:29.391Z,101147.98
2019-05-06T07:30:56.384Z,101150.87
2019-05-06T07:33:23.214Z,101152.58
2019-05-06T07:35:52.637Z,101147.68
2019-05-06T07:38:18.813Z,101149.45
2019-05-06T07:40:47.494Z,101152.11
2019-05-06T07:43:33.767Z,101139.95
2019-05-06T07:46:18.559Z,101143.89
2019-05-06T07:48:45.628Z,101139.69
2019-05-06T07:51:12.544Z,101132.37
2019-05-06T07:53:40.114Z,101134.16
2019-05-06T07:56:07.058Z,101136.16
2019-05-06T07:58:33.903Z,101130.84
2019-05-06T08:01:02.639Z,101128.81
2019-05-06T08:03:29.295Z,101128.13
2019-05-06T08:05:58.771Z,101128.79
2019-05-06T08:08:25.988Z,101126.35
2019-05-06T08:10:52.965Z,101126.88
2019-05-06T08:13:22.475Z,101124.83
2019-05-06T08:15:48.729Z,101129.78
2019-05-06T08:18:15.636Z,101129.16
2019-05-06T08:20:42.822Z,101127.84
2019-05-06T08:23:17.409Z,101137.48
2019-05-06T08:25:46.045Z,101136.27
2019-05-06T08:28:13.385Z,101135.03
2019-05-06T08:30:42.867Z,101129.27
2019-05-06T08:33:09.475Z,101132.05
2019-05-06T08:35:36.299Z,101138.84
2019-05-06T08:38:03.570Z,101132.29
2019-05-06T08:40:31.804Z,101132.69
2019-05-06T08:42:59.205Z,101132.50
2019-05-06T08:45:26.206Z,101128.86
2019-05-06T08:47:52.993Z,101122.38
2019-05-06T08:50:24.386Z,101139.32
2019-05-06T08:52:56.207Z,101126.88
2019-05-06T08:55:32.575Z,101117.16
2019-05-06T08:57:59.720Z,101121.84
2019-05-06T09:00:27.182Z,101126.21
2019-05-06T09:02:54.058Z,101127.98
2019-05-06T09:05:22.351Z,101122.58
2019-05-06T09:07:49.262Z,101111.01
2019-05-06T09:10:16.290Z,101120.09
2019-05-06T09:12:43.339Z,101120.69
2019-05-06T09:15:12.430Z,101125.40
2019-05-06T09:17:38.748Z,101125.64
2019-05-06T09:20:05.647Z,101120.58
2019-05-06T09:22:32.761Z,101119.07
2019-05-06T09:24:59.408Z,101117.80
2019-05-06T09:27:28.036Z,101124.61
2019-05-06T09:29:55.142Z,101114.06
2019-05-06T09:32:24.048Z,101114.57
2019-05-06T09:34:55.500Z,101115.02
2019-05-06T09:37:23.937Z,101114.00
2019-05-06T09:39:53.215Z,101118.89
2019-05-06T09:42:19.880Z,101105.63
2019-05-06T09:44:50.285Z,101106.09
2019-05-06T09:47:22.945Z,101099.00
2019-05-06T09:49:49.789Z,101094.47
2019-05-06T09:52:16.895Z,101093.02
2019-05-06T09:54:48.456Z,101090.97
2019-05-06T09:57:26.462Z,101099.94
2019-05-06T09:59:53.439Z,101098.70
2019-05-06T10:02:22.994Z,101100.15
2019-05-06T10:04:52.213Z,101094.92
2019-05-06T10:07:19.461Z,101097.64
2019-05-06T10:09:46.397Z,101090.84
2019-05-06T10:12:14.464Z,101091.48
2019-05-06T10:14:43.257Z,101084.11
2019-05-06T10:17:13.006Z,101085.45
2019-05-06T10:19:39.409Z,101098.91
2019-05-06T10:22:06.173Z,101099.29
2019-05-06T10:24:33.100Z,101096.41
2019-05-06T10:26:59.841Z,101092.48
2019-05-06T10:29:35.234Z,101088.44
2019-05-06T10:32:06.805Z,101088.80
2019-05-06T10:34:33.594Z,101087.42
2019-05-06T10:37:15.270Z,101083.04
2019-05-06T10:39:38.585Z,101071.66
2019-05-06T10:42:13.474Z,101073.67
2019-05-06T10:44:48.055Z,101075.89
2019-05-06T10:47:14.923Z,101075.98
2019-05-06T10:49:42.262Z,101071.19
2019-05-06T10:52:12.826Z,101066.91
2019-05-06T10:54:42.125Z,101067.72
2019-05-06T10:57:26.942Z,101071.66
2019-05-06T10:59:55.061Z,101070.96
2019-05-06T11:02:27.690Z,101065.11
2019-05-06T11:04:55.247Z,101068.09
2019-05-06T11:07:31.806Z,101067.02
2019-05-06T11:09:53.274Z,101069.34
2019-05-06T11:12:23.432Z,101071.92
2019-05-06T11:14:53.260Z,101065.36
2019-05-06T11:17:22.718Z,101066.55
2019-05-06T11:19:50.238Z,101065.88
2019-05-06T11:22:21.198Z,101065.44
2019-05-06T11:24:47.412Z,101068.55
2019-05-06T11:27:27.724Z,101060.13
2019-05-06T11:29:46.107Z,101064.76
2019-05-06T11:32:27.194Z,101070.91
2019-05-06T11:35:03.882Z,101075.22
2019-05-06T11:37:45.979Z,101070.53
2019-05-06T11:40:03.521Z,101071.13
2019-05-06T11:42:35.055Z,101073.89
2019-05-06T11:45:03.720Z,101050.50
2019-05-06T11:47:32.443Z,101074.41
2019-05-06T11:50:02.503Z,101073.26
2019-05-06T11:52:29.841Z,101070.87
2019-05-06T11:54:58.819Z,101070.06
2019-05-06T11:57:27.328Z,101069.66
2019-05-06T11:59:55.401Z,101066.58
2019-05-06T12:02:24.473Z,101058.97
2019-05-06T12:04:52.774Z,101059.09
2019-05-06T12:07:24.150Z,101054.39
2019-05-06T12:09:50.008Z,101052.95
2019-05-06T12:12:17.581Z,101050.79
2019-05-06T12:14:45.163Z,101052.08
2019-05-06T12:17:12.907Z,101054.31
2019-05-06T12:19:40.563Z,101059.86
2019-05-06T12:22:12.461Z,101052.34
2019-05-06T12:24:39.505Z,101050.42
2019-05-06T12:27:07.709Z,101040.56
2019-05-06T12:29:38.016Z,101042.88
2019-05-06T12:32:24.956Z,101040.05
2019-05-06T12:34:52.505Z,101041.60
2019-05-06T12:37:22.251Z,101041.11
2019-05-06T12:39:53.344Z,101039.78
2019-05-06T12:42:23.183Z,101035.34
2019-05-06T12:44:52.995Z,101037.91
2019-05-06T12:47:29.227Z,101041.59
2019-05-06T12:49:57.344Z,101031.31
2019-05-06T12:52:25.131Z,101036.87
2019-05-06T12:54:56.305Z,101033.48
2019-05-06T12:57:23.655Z,101032.38
2019-05-06T12:59:53.152Z,101029.48
2019-05-06T13:02:23.549Z,101032.67
2019-05-06T13:04:57.624Z,101035.64
2019-05-06T13:07:21.999Z,101043.47
2019-05-06T13:09:49.685Z,101043.45
2019-05-06T13:12:19.196Z,101037.92
2019-05-06T13:14:46.615Z,101034.75
2019-05-06T13:17:15.879Z,101035.27
2019-05-06T13:19:43.104Z,101034.06
2019-05-06T13:22:13.447Z,101037.30
2019-05-06T13:24:41.263Z,101040.86
2019-05-06T13:27:12.596Z,101021.14
2019-05-06T13:29:39.877Z,101032.19
2019-05-06T13:32:09.576Z,101028.06
2019-05-06T13:34:37.034Z,101013.05
2019-05-06T13:37:04.732Z,101017.48
2019-05-06T13:39:33.255Z,101017.48
2019-05-06T13:42:00.969Z,101012.86
2019-05-06T13:44:28.263Z,101001.83
2019-05-06T13:46:55.565Z,101008.26
2019-05-06T13:49:27.582Z,100991.56
2019-05-06T13:52:08.342Z,100991.56
2019-05-06T13:54:35.801Z,101013.13
2019-05-06T13:57:03.253Z,101002.27
2019-05-06T13:59:34.682Z,101000.20
2019-05-06T14:02:18.928Z,101001.00
2019-05-06T14:04:47.022Z,101000.04
2019-05-06T14:07:14.990Z,100995.34
2019-05-06T14:09:43.704Z,100996.81
2019-05-06T14:12:11.740Z,100989.67
2019-05-06T14:14:39.173Z,100983.03
2019-05-06T14:17:06.756Z,100987.11
2019-05-06T14:19:34.747Z,100986.21
2019-05-06T14:22:02.964Z,100990.25
2019-05-06T14:24:32.800Z,100982.47
2019-05-06T14:27:02.646Z,100981.45
2019-05-06T14:29:32.991Z,100986.30
2019-05-06T14:32:02.254Z,100978.39
2019-05-06T14:34:29.768Z,100983.85
2019-05-06T14:36:56.897Z,100988.02
2019-05-06T14:39:43.423Z,100985.70
2019-05-06T14:41:56.718Z,100991.00
2019-05-06T14:44:24.465Z,100987.49
2019-05-06T14:47:05.812Z,100988.72
2019-05-06T14:49:34.295Z,100988.58
2019-05-06T14:52:02.642Z,100997.22
2019-05-06T14:54:33.012Z,100990.34
2019-05-06T14:57:04.914Z,100985.48
2019-05-06T14:59:33.034Z,100985.48
2019-05-06T15:02:02.477Z,100987.56
2019-05-06T15:04:32.266Z,100992.01
2019-05-06T15:06:59.260Z,100994.11
2019-05-06T15:09:27.134Z,100992.61
2019-05-06T15:11:55.149Z,100987.83
2019-05-06T15:14:22.849Z,100998.25
2019-05-06T15:16:52.778Z,100991.06
2019-05-06T15:19:22.565Z,100994.18
2019-05-06T15:21:49.505Z,100994.62
2019-05-06T15:24:20.824Z,100989.42
2019-05-06T15:26:45.963Z,100994.03
2019-05-06T15:29:12.849Z,100991.80
2019-05-06T15:31:42.084Z,100997.53
2019-05-06T15:34:12.962Z,100992.84
2019-05-06T15:36:44.334Z,100989.37
2019-05-06T15:39:13.103Z,100985.72
2019-05-06T15:41:42.610Z,100986.47
2019-05-06T15:44:09.484Z,100981.78
2019-05-06T15:46:37.753Z,100981.52
2019-05-06T15:49:04.748Z,100984.91
2019-05-06T15:51:34.737Z,100981.24
2019-05-06T15:54:02.695Z,100980.67
2019-05-06T15:56:32.751Z,100983.89
2019-05-06T15:58:59.659Z,100984.27
2019-05-06T16:01:26.619Z,100982.19
2019-05-06T16:03:53.457Z,100984.87
2019-05-06T16:06:22.806Z,100988.71
2019-05-06T16:08:49.632Z,100995.23
2019-05-06T16:11:16.634Z,100988.49
2019-05-06T16:13:45.094Z,100987.42
2019-05-06T16:16:12.332Z,100988.64
2019-05-06T16:18:39.178Z,100992.14
2019-05-06T16:21:06.159Z,100994.09
2019-05-06T16:23:35.063Z,100991.00
2019-05-06T16:26:03.013Z,100996.05
2019-05-06T16:28:30.425Z,100999.44
2019-05-06T16:30:57.422Z,101004.88
2019-05-06T16:33:24.397Z,101012.19
2019-05-06T16:35:52.362Z,101013.89
2019-05-06T16:38:19.360Z,101003.56
2019-05-06T16:40:45.890Z,101007.96
2019-05-06T16:43:13.790Z,101007.96
2019-05-06T16:45:42.837Z,101012.67
2019-05-06T16:48:09.657Z,101014.39
2019-05-06T16:50:36.619Z,101007.27
2019-05-06T16:53:04.693Z,101015.72
2019-05-06T16:55:52.704Z,101011.90
2019-05-06T16:58:22.292Z,101017.73
2019-05-06T17:00:52.384Z,101014.23
2019-05-06T17:03:23.135Z,101013.47
2019-05-06T17:06:04.027Z,101019.70
2019-05-06T17:08:35.957Z,101024.61
2019-05-06T17:10:59.684Z,101028.95
2019-05-06T17:13:26.668Z,101025.20
2019-05-06T17:15:53.882Z,101024.33
2019-05-06T17:18:22.599Z,101022.89
2019-05-06T17:20:49.987Z,101021.56
2019-05-06T17:23:16.941Z,101024.41
2019-05-06T17:25:44.228Z,101018.72
2019-05-06T17:28:15.817Z,101022.66
2019-05-06T17:30:51.661Z,101026.18
2019-05-06T17:33:33.541Z,101027.92
2019-05-06T17:36:02.935Z,101030.14
2019-05-06T17:38:32.203Z,101028.44
2019-05-06T17:40:59.972Z,101026.74
2019-05-06T17:43:27.146Z,101035.20
2019-05-06T17:46:01.391Z,101029.86
2019-05-06T17:48:29.278Z,101029.09
2019-05-06T17:51:13.918Z,101027.36
2019-05-06T17:53:42.991Z,101037.94
2019-05-06T17:56:12.376Z,101037.92
2019-05-06T17:58:39.159Z,101041.95
2019-05-06T18:01:07.349Z,101045.05
2019-05-06T18:03:34.535Z,101041.58
2019-05-06T18:06:07.062Z,101042.48
2019-05-06T18:08:30.172Z,101045.17
2019-05-06T18:10:57.238Z,101051.81
2019-05-06T18:13:23.982Z,101053.17
2019-05-06T18:15:52.912Z,101053.66
2019-05-06T18:18:21.469Z,101052.82
2019-05-06T18:20:48.478Z,101057.27
2019-05-06T18:23:15.297Z,101060.36
2019-05-06T18:25:43.116Z,101067.42
2019-05-06T18:28:12.125Z,101069.23
2019-05-06T18:30:39.951Z,101073.67
2019-05-06T18:33:07.067Z,101079.38
2019-05-06T18:35:34.132Z,101078.09
2019-05-06T18:38:02.962Z,101083.81
2019-05-06T18:40:33.038Z,101081.61
2019-05-06T18:42:58.988Z,101089.12
2019-05-06T18:45:26.236Z,101098.80
2019-05-06T18:47:53.217Z,101100.55
2019-05-06T18:50:21.980Z,101102.74
2019-05-06T18:52:52.823Z,101099.67
2019-05-06T18:55:22.200Z,101102.31
2019-05-06T18:57:48.440Z,101108.00
2019-05-06T19:00:15.599Z,101111.99
2019-05-06T19:02:42.459Z,101111.09
2019-05-06T19:05:13.077Z,101117.27
2019-05-06T19:07:40.137Z,101116.80
2019-05-06T19:10:12.900Z,101119.89
2019-05-06T19:12:41.544Z,101118.55
2019-05-06T19:15:08.698Z,101126.45
2019-05-06T19:17:36.009Z,101122.05
2019-05-06T19:20:03.425Z,101125.14
2019-05-06T19:22:32.300Z,101125.59
2019-05-06T19:25:19.459Z,101127.76
2019-05-06T19:27:46.638Z,101128.64
2019-05-06T19:30:13.972Z,101126.45
2019-05-06T19:32:43.304Z,101131.73
2019-05-06T19:35:09.908Z,101123.37
2019-05-06T19:37:38.524Z,101122.05
2019-05-06T19:40:05.469Z,101130.39
2019-05-06T19:42:43.670Z,101125.56
2019-05-06T19:45:02.500Z,101120.72
2019-05-06T19:47:31.960Z,101123.37
2019-05-06T19:49:59.308Z,101125.96
2019-05-06T19:52:26.092Z,101129.05
2019-05-06T19:54:53.295Z,101123.36
2019-05-06T19:57:20.188Z,101137.80
2019-05-06T19:59:47.035Z,101136.48
2019-05-06T20:02:14.409Z,101137.38
2019-05-06T20:04:44.369Z,101135.63
2019-05-06T20:07:22.846Z,101130.36
2019-05-06T20:10:03.849Z,101138.68
2019-05-06T20:12:43.462Z,101125.54
2019-05-06T20:15:28.773Z,101135.61
2019-05-06T20:17:56.671Z,101139.98
2019-05-06T20:20:24.800Z,101140.87
2019-05-06T20:22:52.013Z,101142.17
2019-05-06T20:25:19.288Z,101135.59
2019-05-06T20:27:47.020Z,101139.52
2019-05-06T20:30:14.079Z,101140.36
2019-05-06T20:32:42.523Z,101137.30
2019-05-06T20:35:09.710Z,101135.14
2019-05-06T20:37:36.483Z,101133.81
2019-05-06T20:40:05.654Z,101131.66
2019-05-06T20:42:32.812Z,101129.88
2019-05-06T20:45:01.958Z,101131.61
2019-05-06T20:47:31.510Z,101129.84
2019-05-06T20:49:59.087Z,101132.03
2019-05-06T20:52:26.226Z,101122.84
2019-05-06T20:54:55.010Z,101123.25
2019-05-06T20:57:23.083Z,101123.70
2019-05-06T20:59:52.600Z,101127.58
2019-05-06T21:02:25.027Z,101131.95
2019-05-06T21:04:48.677Z,101130.18
2019-05-06T21:07:15.886Z,101133.23
2019-05-06T21:09:43.404Z,101127.16
2019-05-06T21:12:10.781Z,101131.95
2019-05-06T21:14:38.050Z,101126.27
2019-05-06T21:17:05.105Z,101126.27
2019-05-06T21:19:33.351Z,101131.04
2019-05-06T21:22:02.201Z,101127.12
2019-05-06T21:24:28.846Z,101128.72
2019-05-06T21:26:55.992Z,101135.86
2019-05-06T21:29:23.421Z,101129.30
2019-05-06T21:31:50.391Z,101131.50
2019-05-06T21:34:18.227Z,101127.53
2019-05-06T21:36:45.080Z,101137.55
2019-05-06T21:39:13.030Z,101137.06
2019-05-06T21:41:42.482Z,101135.35
2019-05-06T21:44:09.218Z,101138.02
2019-05-06T21:46:36.438Z,101137.55
2019-05-06T21:49:03.495Z,101130.91
2019-05-06T21:51:32.727Z,101140.08
2019-05-06T21:54:00.829Z,101135.71
2019-05-06T21:56:31.925Z,101134.83
2019-05-06T21:58:58.844Z,101133.91
2019-05-06T22:01:26.115Z,101136.48
2019-05-06T22:03:52.914Z,101140.43
2019-05-06T22:06:22.429Z,101133.44
2019-05-06T22:08:49.233Z,101135.09
2019-05-06T22:11:16.086Z,101139.88
2019-05-06T22:13:56.900Z,101130.23
2019-05-06T22:16:12.633Z,101131.41
2019-05-06T22:18:39.649Z,101136.65
2019-05-06T22:21:23.379Z,101128.64
2019-05-06T22:23:58.202Z,101125.59
2019-05-06T22:26:25.388Z,101128.16
2019-05-06T22:28:52.812Z,101123.23
2019-05-06T22:31:23.903Z,101119.23
2019-05-06T22:33:48.439Z,101118.81
2019-05-06T22:36:15.559Z,101116.20
2019-05-06T22:38:44.285Z,101112.26
2019-05-06T22:41:11.783Z,101121.37
2019-05-06T22:43:38.848Z,101119.58
2019-05-06T22:46:05.635Z,101116.13
2019-05-06T22:48:32.585Z,101111.25
2019-05-06T22:50:59.522Z,101112.19
2019-05-06T22:53:26.981Z,101109.59
2019-05-06T22:55:55.918Z,101108.69
2019-05-06T22:58:22.874Z,101113.92
2019-05-06T23:00:53.530Z,101103.80
2019-05-06T23:03:32.079Z,101105.06
2019-05-06T23:05:59.942Z,101109.45
2019-05-06T23:08:26.924Z,101117.54
2019-05-06T23:10:54.052Z,101116.09
2019-05-06T23:13:22.948Z,101115.81
2019-05-06T23:15:52.377Z,101119.62
2019-05-06T23:18:19.367Z,101112.66
2019-05-06T23:20:46.629Z,101117.28
2019-05-06T23:23:13.734Z,101121.12
2019-05-06T23:25:43.447Z,101109.84
2019-05-06T23:28:09.251Z,101112.92
2019-05-06T23:30:36.185Z,101108.16
2019-05-06T23:33:03.325Z,101109.42
2019-05-06T23:35:30.152Z,101111.22
2019-05-06T23:38:15.323Z,101115.21
2019-05-06T23:41:00.294Z,101112.99
2019-05-06T23:43:45.215Z,101120.30
2019-05-06T23:46:32.345Z,101119.81
2019-05-06T23:49:17.446Z,101119.72
2019-05-06T23:52:02.737Z,101113.92
2019-05-06T23:54:47.602Z,101112.58
2019-05-06T23:57:13.531Z,101120.70
2019-05-06T23:59:42.966Z,101118.80
